Alert Bay, Canada
Current Conditions -  °F | °C
As of 6:10 PM on Friday 28 Nov 2014 (Local Time) from CYZT Reporting Station
Snow Showers Snow Showers  
Wind Chill: 20°   Ceiling: 3000
Heat Index: 28°   Visibility: 10mi
Dew Point: 19°   Wind: 9mph
Humidity: 69%   Direction: 260°W
Pressure: 29.6"   Gusts: NA
Location:  50.58°N, 126.92°W
Report Text: CYZT 290210Z 26008KT 10SM -SHSN BKN030 OVC042 M02/M07 A2960 RMK SC5SC3 SLP023
Loading
Personal Weather Stations






























Interactive Weather Map New forecast layout! Learn more

10-Day Weather Forecast

Advertisements
Track Severe Weather on mobile